Time;durP1;ratioP1;P1;durP2;ratioP2;P2;SDS_P1;SDS_P2;PMS_P1;PMS_P2;Temp;Humidity;BMP_temperature;BMP_pressure;BME280_temperature;BME280_humidity;BME280_pressure;Samples;Min_cycle;Max_cycle;Signal;HPM_P1;HPM_P2
2022/11/12 00:00:26;;;;;;;7.90;7.20;;;11.80;63.60;;;;;;5028118;28;20285;-58
2022/11/12 00:02:51;;;;;;;7.70;6.87;;;11.80;63.30;;;;;;5033745;28;20193;-58
2022/11/12 00:05:17;;;;;;;8.03;7.27;;;11.90;63.00;;;;;;5035764;28;20727;-59
2022/11/12 00:07:42;;;;;;;9.93;6.47;;;11.60;64.10;;;;;;5023472;28;20649;-58
2022/11/12 00:10:08;;;;;;;8.87;6.90;;;11.60;63.60;;;;;;5028930;28;20290;-57
2022/11/12 00:12:34;;;;;;;7.50;6.90;;;11.70;63.90;;;;;;5028266;28;20189;-59
2022/11/12 00:14:59;;;;;;;9.40;8.50;;;11.60;64.10;;;;;;5029915;28;20450;-58
2022/11/12 00:17:25;;;;;;;7.13;6.43;;;11.70;64.00;;;;;;5026777;28;20280;-58
2022/11/12 00:19:51;;;;;;;7.90;7.10;;;11.70;63.70;;;;;;5022437;28;20262;-59
2022/11/12 00:22:16;;;;;;;7.40;6.80;;;11.70;63.20;;;;;;5029267;28;20239;-58
2022/11/12 00:24:42;;;;;;;6.90;6.30;;;11.70;62.80;;;;;;5022010;28;20256;-58
2022/11/12 00:27:07;;;;;;;7.60;6.90;;;11.70;62.40;;;;;;5025502;28;20276;-57
2022/11/12 00:29:33;;;;;;;7.53;6.83;;;11.70;62.50;;;;;;5027456;28;20242;-58
2022/11/12 00:31:58;;;;;;;6.37;5.80;;;11.60;62.30;;;;;;5027446;28;20224;-57
2022/11/12 00:34:24;;;;;;;6.90;6.30;;;11.50;62.50;;;;;;5037085;28;20616;-58
2022/11/12 00:36:49;;;;;;;7.37;6.77;;;11.50;62.80;;;;;;5032158;28;20193;-58
2022/11/12 00:39:15;;;;;;;7.20;6.50;;;11.30;63.10;;;;;;5033910;28;20197;-57
2022/11/12 00:41:41;;;;;;;6.60;6.00;;;11.30;63.60;;;;;;5027531;28;20229;-57
2022/11/12 00:44:06;;;;;;;7.57;6.87;;;11.30;63.60;;;;;;5039802;28;20189;-58
2022/11/12 00:46:32;;;;;;;7.80;7.10;;;11.30;63.30;;;;;;5028987;28;20201;-57
2022/11/12 00:48:57;;;;;;;8.23;7.23;;;11.30;63.50;;;;;;5034141;28;20197;-58
2022/11/12 00:51:23;;;;;;;8.07;7.10;;;11.20;63.30;;;;;;5031278;28;20221;-59
2022/11/12 00:53:49;;;;;;;7.67;6.87;;;11.20;63.40;;;;;;5031541;28;20225;-58
2022/11/12 00:56:15;;;;;;;7.07;6.40;;;11.30;63.30;;;;;;5029283;28;20667;-58
2022/11/12 00:58:41;;;;;;;6.70;6.10;;;11.20;63.20;;;;;;5021717;28;20444;-58
2022/11/12 01:01:13;;;;;;;7.90;6.60;;;11.30;63.20;;;;;;5028537;28;20536;-58
2022/11/12 01:03:39;;;;;;;7.37;6.60;;;11.30;62.80;;;;;;5030856;28;20200;-57
2022/11/12 01:06:14;;;;;;;6.60;6.10;;;11.40;62.60;;;;;;5028532;28;20539;-58
2022/11/12 01:08:40;;;;;;;7.33;6.33;;;11.40;62.20;;;;;;5027365;28;20452;-56
2022/11/12 01:11:09;;;;;;;6.83;6.23;;;11.30;61.90;;;;;;5030162;28;20484;-58
2022/11/12 01:13:35;;;;;;;7.63;6.90;;;11.30;62.20;;;;;;5037980;28;21242;-58
2022/11/12 01:16:13;;;;;;;7.83;7.07;;;11.30;62.20;;;;;;5024852;28;20797;-58
2022/11/12 01:18:39;;;;;;;6.90;6.30;;;11.30;62.00;;;;;;5026016;28;20443;-58
2022/11/12 01:21:06;;;;;;;6.87;6.23;;;11.30;61.80;;;;;;5025649;28;20598;-59
2022/11/12 01:23:37;;;;;;;7.87;7.17;;;11.20;62.30;;;;;;5031339;28;20448;-58
2022/11/12 01:26:08;;;;;;;7.63;6.73;;;11.20;62.20;;;;;;5026228;28;20458;-58
2022/11/12 01:28:34;;;;;;;6.50;5.90;;;11.20;62.10;;;;;;5019447;28;20443;-58
2022/11/12 01:31:33;;;;;;;7.27;6.60;;;11.10;62.20;;;;;;5024836;28;20491;-58
2022/11/12 01:34:02;;;;;;;6.77;6.17;;;11.20;62.50;;;;;;5012105;28;20539;-58
2022/11/12 01:36:32;;;;;;;8.63;6.67;;;11.20;62.20;;;;;;5025154;28;20558;-58
2022/11/12 01:38:58;;;;;;;7.90;6.13;;;11.20;62.00;;;;;;5028547;28;20428;-58
2022/11/12 01:41:27;;;;;;;8.60;6.67;;;11.20;62.60;;;;;;5028885;28;20458;-58
2022/11/12 01:44:16;;;;;;;7.37;6.67;;;11.00;62.70;;;;;;5027699;28;20201;-58
2022/11/12 01:47:01;;;;;;;7.80;7.10;;;10.90;62.60;;;;;;5027128;28;20454;-57
2022/11/12 01:49:39;;;;;;;7.23;6.60;;;10.80;63.20;;;;;;5025728;28;20559;-58
2022/11/12 01:52:09;;;;;;;6.53;5.93;;;10.80;63.20;;;;;;5030840;28;20464;-56
2022/11/12 01:54:36;;;;;;;8.33;7.63;;;10.90;63.10;;;;;;5028409;28;20487;-59
2022/11/12 01:57:02;;;;;;;6.93;6.33;;;10.90;62.90;;;;;;5032788;28;20472;-58
2022/11/12 01:59:36;;;;;;;7.90;6.63;;;11.00;62.60;;;;;;5028981;28;20440;-58
2022/11/12 02:02:02;;;;;;;7.40;6.57;;;11.00;62.50;;;;;;5026028;28;20441;-58
2022/11/12 02:04:28;;;;;;;7.87;7.07;;;11.00;62.20;;;;;;5029007;28;20455;-58
2022/11/12 02:06:56;;;;;;;8.00;7.20;;;11.10;62.00;;;;;;5027417;28;20185;-58
2022/11/12 02:09:21;;;;;;;7.53;6.83;;;11.10;62.30;;;;;;5020780;28;20613;-58
2022/11/12 02:11:47;;;;;;;7.40;6.70;;;11.20;61.80;;;;;;5019154;28;20497;-59
2022/11/12 02:14:13;;;;;;;7.63;6.90;;;11.00;60.90;;;;;;5025202;28;20193;-58
2022/11/12 02:16:40;;;;;;;7.40;6.70;;;10.80;61.00;;;;;;5032540;28;20274;-58
2022/11/12 02:19:09;;;;;;;7.20;6.60;;;10.70;61.70;;;;;;5027266;28;20451;-58
2022/11/12 02:21:35;;;;;;;6.67;5.83;;;10.60;61.90;;;;;;5035877;28;20464;-60
2022/11/12 02:24:10;;;;;;;8.30;5.93;;;10.50;62.10;;;;;;5026709;28;20494;-58
2022/11/12 02:26:40;;;;;;;7.13;6.53;;;10.50;62.40;;;;;;5029623;28;20443;-59
2022/11/12 02:29:06;;;;;;;7.40;6.70;;;10.50;62.50;;;;;;5030035;28;20448;-58
2022/11/12 02:31:32;;;;;;;6.40;5.80;;;10.50;62.30;;;;;;5028471;28;20582;-58
2022/11/12 02:33:57;;;;;;;7.37;6.67;;;10.60;62.10;;;;;;5026908;28;20193;-57
2022/11/12 02:36:24;;;;;;;9.07;6.77;;;10.60;61.80;;;;;;5020699;28;20192;-57
2022/11/12 02:38:49;;;;;;;9.80;7.30;;;10.70;61.70;;;;;;5020240;28;20229;-59
2022/11/12 02:41:15;;;;;;;6.90;6.30;;;10.60;61.70;;;;;;5024797;28;20451;-58
2022/11/12 02:43:41;;;;;;;6.80;6.10;;;10.60;61.80;;;;;;5026372;28;20197;-58
2022/11/12 02:46:06;;;;;;;7.13;5.63;;;10.50;61.90;;;;;;5019576;28;20197;-58
2022/11/12 02:48:32;;;;;;;6.63;6.00;;;10.40;62.10;;;;;;5026155;28;20193;-58
2022/11/12 02:50:58;;;;;;;7.50;6.27;;;10.30;62.60;;;;;;5026885;28;20216;-57
2022/11/12 02:53:23;;;;;;;8.53;6.10;;;10.30;62.70;;;;;;5026230;28;20189;-58
2022/11/12 02:55:49;;;;;;;7.30;6.10;;;10.40;62.90;;;;;;5028492;28;20714;-59
2022/11/12 02:58:15;;;;;;;5.97;5.47;;;10.50;62.80;;;;;;5033747;28;20781;-59
2022/11/12 03:00:40;;;;;;;8.23;6.33;;;10.40;62.90;;;;;;5034548;28;20851;-59
2022/11/12 03:03:06;;;;;;;6.27;5.67;;;10.30;63.20;;;;;;5029545;28;20239;-58
2022/11/12 03:05:33;;;;;;;6.17;5.67;;;10.10;63.60;;;;;;5028493;28;20196;-58
2022/11/12 03:08:01;;;;;;;5.33;4.87;;;9.90;66.20;;;;;;5021828;28;20193;-58
2022/11/12 03:10:28;;;;;;;6.10;5.53;;;9.80;67.00;;;;;;5023906;28;20497;-58
2022/11/12 03:12:56;;;;;;;6.30;5.67;;;9.70;67.70;;;;;;5024336;28;20459;-58
2022/11/12 03:15:22;;;;;;;6.40;5.77;;;9.80;68.10;;;;;;5023143;28;20448;-58
2022/11/12 03:17:47;;;;;;;7.03;6.37;;;9.80;67.90;;;;;;5023419;28;20455;-58
2022/11/12 03:20:13;;;;;;;7.40;6.37;;;9.80;68.10;;;;;;5032573;28;20458;-59
2022/11/12 03:22:39;;;;;;;6.13;5.53;;;9.80;68.40;;;;;;5029957;28;20241;-58
2022/11/12 03:25:06;;;;;;;6.63;5.73;;;9.80;68.10;;;;;;5024318;28;20201;-59
2022/11/12 03:27:32;;;;;;;6.20;5.60;;;9.90;67.90;;;;;;5026524;28;20448;-59
2022/11/12 03:29:57;;;;;;;6.37;5.77;;;10.10;66.20;;;;;;5025282;28;20845;-58
2022/11/12 03:32:23;;;;;;;6.83;6.20;;;10.20;65.50;;;;;;5028859;28;20657;-59
2022/11/12 03:34:49;;;;;;;6.20;5.60;;;10.20;65.30;;;;;;5032114;28;20195;-59
2022/11/12 03:37:14;;;;;;;6.87;6.17;;;10.30;64.90;;;;;;5037249;28;20679;-59
2022/11/12 03:39:40;;;;;;;7.97;7.17;;;10.40;64.80;;;;;;5022738;28;20201;-59
2022/11/12 03:42:06;;;;;;;5.73;5.23;;;10.50;64.50;;;;;;5032500;28;20200;-58
2022/11/12 03:44:32;;;;;;;5.90;5.40;;;10.50;64.10;;;;;;5032784;28;20204;-59
2022/11/12 03:46:57;;;;;;;5.60;5.20;;;10.60;63.80;;;;;;5024573;28;20240;-59
2022/11/12 03:49:23;;;;;;;5.70;5.20;;;10.60;63.50;;;;;;5020313;28;20657;-58
2022/11/12 03:51:48;;;;;;;6.30;5.70;;;10.50;63.40;;;;;;5025446;28;20632;-57
2022/11/12 03:54:14;;;;;;;6.13;5.60;;;10.30;63.40;;;;;;5030281;28;20204;-57
2022/11/12 03:56:39;;;;;;;5.97;5.47;;;10.10;63.90;;;;;;5030702;28;20655;-58
2022/11/12 03:59:05;;;;;;;8.33;6.13;;;10.00;64.20;;;;;;5028647;28;20686;-58
2022/11/12 04:01:31;;;;;;;6.10;5.60;;;9.80;65.40;;;;;;5022816;28;20301;-58
2022/11/12 04:03:57;;;;;;;5.30;4.87;;;9.80;66.00;;;;;;5027831;28;20204;-58
2022/11/12 04:09:07;;;;;;;5.27;4.80;;;10.00;64.60;;;;;;5027430;28;20208;-58
2022/11/12 04:11:32;;;;;;;7.40;5.80;;;10.10;64.30;;;;;;5027825;28;20495;-58
2022/11/12 04:13:59;;;;;;;5.50;5.00;;;10.20;64.00;;;;;;5033768;28;20199;-58
2022/11/12 04:22:04;;;;;;;6.63;5.23;;;10.40;62.90;;;;;;5033433;28;20491;-58
2022/11/12 04:27:27;;;;;;;5.87;5.37;;;10.20;63.30;;;;;;5029603;28;20502;-58
2022/11/12 04:32:50;;;;;;;6.13;5.57;;;10.30;63.40;;;;;;5027709;28;20462;-58
2022/11/12 04:35:17;;;;;;;6.50;5.90;;;10.30;63.20;;;;;;5026705;28;20467;-58
2022/11/12 04:37:43;;;;;;;6.57;5.97;;;10.20;63.10;;;;;;5029658;28;21741;-58
2022/11/12 04:45:46;;;;;;;6.63;6.00;;;10.30;63.20;;;;;;5028833;28;20516;-58
2022/11/12 04:48:12;;;;;;;6.30;5.57;;;10.30;63.10;;;;;;5028865;28;20502;-58
2022/11/12 04:50:38;;;;;;;6.83;6.00;;;10.40;63.20;;;;;;5029338;28;20918;-58
2022/11/12 04:53:04;;;;;;;7.00;6.30;;;10.40;62.90;;;;;;5027869;28;20277;-58
2022/11/12 04:55:30;;;;;;;6.53;5.93;;;10.30;63.00;;;;;;5026635;28;20447;-58
2022/11/12 04:57:56;;;;;;;6.20;5.60;;;10.40;64.10;;;;;;5035447;28;20432;-58
2022/11/12 05:00:22;;;;;;;7.40;6.20;;;10.40;63.10;;;;;;5029034;28;20557;-58
2022/11/12 05:02:49;;;;;;;5.77;5.20;;;10.40;62.90;;;;;;5024656;28;20197;-58
2022/11/12 05:05:14;;;;;;;5.70;5.10;;;10.40;62.90;;;;;;5025868;28;21817;-58
2022/11/12 05:07:40;;;;;;;5.97;5.47;;;10.40;63.10;;;;;;5036133;28;20438;-58
2022/11/12 05:10:06;;;;;;;6.03;5.50;;;10.40;63.40;;;;;;5034740;28;20675;-58
2022/11/12 05:12:32;;;;;;;6.30;5.73;;;10.20;63.30;;;;;;5031394;28;20280;-58
2022/11/12 05:14:57;;;;;;;5.60;5.10;;;10.30;63.60;;;;;;5030521;28;20571;-58
2022/11/12 05:17:23;;;;;;;7.90;5.30;;;10.40;63.20;;;;;;5027794;28;20201;-58
2022/11/12 05:19:48;;;;;;;8.60;6.57;;;10.40;62.90;;;;;;5021036;28;20220;-58
2022/11/12 05:22:14;;;;;;;9.27;6.23;;;10.40;62.70;;;;;;5025726;28;20746;-58
2022/11/12 05:24:41;;;;;;;8.33;6.70;;;10.50;62.60;;;;;;5027385;28;20216;-58
2022/11/12 05:27:10;;;;;;;10.30;6.67;;;10.60;62.40;;;;;;5032738;28;21389;-58
2022/11/12 05:29:36;;;;;;;7.03;6.37;;;10.60;62.30;;;;;;5024426;28;20476;-58
2022/11/12 05:32:02;;;;;;;6.50;5.53;;;10.60;62.30;;;;;;5026721;28;20484;-59
2022/11/12 05:34:28;;;;;;;7.23;6.43;;;10.70;62.20;;;;;;5033313;28;20451;-58
2022/11/12 05:36:54;;;;;;;7.90;5.93;;;10.60;62.00;;;;;;5027090;28;20474;-57
2022/11/12 05:39:19;;;;;;;7.30;5.70;;;10.60;61.90;;;;;;5034236;28;20204;-58
2022/11/12 05:41:45;;;;;;;6.03;5.33;;;10.60;61.80;;;;;;5025524;28;20243;-58
2022/11/12 05:44:11;;;;;;;6.17;5.57;;;10.70;61.80;;;;;;5027735;28;20272;-58
2022/11/12 05:46:36;;;;;;;5.63;5.13;;;10.70;61.70;;;;;;5021221;28;20276;-59
2022/11/12 05:49:02;;;;;;;5.77;5.23;;;10.70;61.70;;;;;;5022350;28;20193;-58
2022/11/12 05:51:28;;;;;;;6.10;5.50;;;10.70;61.80;;;;;;5027781;28;20287;-58
2022/11/12 05:53:53;;;;;;;6.17;5.63;;;10.70;61.70;;;;;;5032589;28;20641;-59
2022/11/12 05:56:19;;;;;;;5.73;5.10;;;10.50;61.50;;;;;;5028016;28;20201;-58
2022/11/12 05:58:44;;;;;;;6.03;5.43;;;10.30;62.40;;;;;;5023919;28;20204;-58
2022/11/12 06:01:10;;;;;;;6.63;5.93;;;10.10;62.40;;;;;;5023739;28;21625;-58
2022/11/12 06:03:36;;;;;;;6.47;5.57;;;10.10;62.70;;;;;;5033526;28;20201;-58
2022/11/12 06:06:01;;;;;;;6.60;5.87;;;10.00;63.20;;;;;;5032130;28;20197;-58
2022/11/12 06:08:27;;;;;;;6.47;5.87;;;9.90;64.90;;;;;;5016325;28;20193;-58
2022/11/12 06:10:54;;;;;;;6.23;5.60;;;10.00;64.10;;;;;;5037169;28;20254;-57
2022/11/12 06:13:21;;;;;;;15.93;6.07;;;10.10;64.30;;;;;;5031470;28;20197;-56
2022/11/12 06:15:47;;;;;;;6.53;5.77;;;10.30;66.40;;;;;;5030945;28;20734;-56
2022/11/12 06:18:12;;;;;;;6.27;5.67;;;10.70;68.20;;;;;;5026080;28;20458;-58
2022/11/12 06:20:38;;;;;;;7.63;4.47;;;10.90;67.50;;;;;;5026382;28;20193;-58
2022/11/12 06:23:04;;;;;;;8.57;6.40;;;11.10;66.40;;;;;;5026432;28;20224;-56
2022/11/12 06:25:30;;;;;;;6.77;5.93;;;11.30;65.90;;;;;;5017052;28;20482;-58
2022/11/12 06:27:55;;;;;;;5.90;5.30;;;11.30;64.20;;;;;;5024548;28;20347;-58
2022/11/12 06:30:21;;;;;;;6.90;6.20;;;11.50;64.80;;;;;;5024516;28;20213;-57
2022/11/12 06:32:48;;;;;;;7.67;6.20;;;11.70;64.60;;;;;;5029839;28;20929;-57
2022/11/12 06:35:15;;;;;;;7.60;6.80;;;11.90;63.40;;;;;;5024119;28;20817;-58
2022/11/12 06:37:41;;;;;;;9.30;7.80;;;12.10;62.50;;;;;;5024812;28;20531;-57
2022/11/12 06:40:07;;;;;;;11.30;8.33;;;12.20;61.50;;;;;;5026590;28;20538;-57
2022/11/12 06:42:33;;;;;;;7.60;6.90;;;12.10;59.10;;;;;;5028587;28;20197;-57
2022/11/12 06:44:59;;;;;;;8.17;6.50;;;12.10;58.80;;;;;;5028841;28;20452;-58
2022/11/12 06:47:25;;;;;;;6.20;5.63;;;12.10;59.00;;;;;;5033621;28;20450;-57
2022/11/12 06:49:51;;;;;;;7.03;6.30;;;12.20;58.80;;;;;;5026420;28;20444;-58
2022/11/12 06:52:16;;;;;;;9.13;6.50;;;12.20;58.40;;;;;;5027091;28;20958;-58
2022/11/12 06:54:42;;;;;;;6.87;6.17;;;12.20;58.30;;;;;;5024935;28;20189;-57
2022/11/12 06:57:08;;;;;;;7.50;6.20;;;12.30;58.10;;;;;;5030146;28;20199;-57
2022/11/12 06:59:33;;;;;;;8.40;6.13;;;12.40;58.40;;;;;;5024398;28;20207;-58
2022/11/12 07:01:59;;;;;;;7.87;6.73;;;12.40;57.90;;;;;;5024406;28;20194;-58
2022/11/12 07:04:25;;;;;;;12.57;10.77;;;12.50;57.50;;;;;;5026460;28;20717;-58
2022/11/12 07:06:50;;;;;;;10.03;8.33;;;12.60;57.10;;;;;;5037070;28;20216;-58
2022/11/12 07:09:16;;;;;;;7.63;6.83;;;12.60;56.70;;;;;;5028123;28;20194;-57
2022/11/12 07:11:42;;;;;;;8.57;7.00;;;12.60;56.90;;;;;;5030770;28;20278;-57
2022/11/12 07:14:07;;;;;;;7.47;6.70;;;12.60;57.20;;;;;;5026625;28;20208;-58
2022/11/12 07:16:33;;;;;;;8.07;7.20;;;12.60;57.40;;;;;;5036504;28;20439;-57
2022/11/12 07:18:59;;;;;;;7.67;6.97;;;12.70;57.00;;;;;;5023631;28;20232;-58
2022/11/12 07:21:25;;;;;;;7.80;6.80;;;12.70;57.00;;;;;;5035704;28;20475;-57
2022/11/12 07:23:51;;;;;;;7.00;6.40;;;12.80;57.10;;;;;;5022386;28;20448;-58
2022/11/12 07:26:26;;;;;;;7.40;6.60;;;12.90;57.20;;;;;;5045861;28;20445;-58
2022/11/12 07:28:55;;;;;;;7.90;7.30;;;13.20;57.80;;;;;;5022356;28;20185;-57
2022/11/12 07:31:21;;;;;;;7.23;6.63;;;13.40;56.70;;;;;;5024749;28;20997;-58
2022/11/12 07:33:47;;;;;;;7.27;6.67;;;13.60;56.00;;;;;;5028395;28;20498;-57
2022/11/12 07:36:18;;;;;;;6.60;6.00;;;13.80;55.70;;;;;;5051033;28;20438;-57
2022/11/12 07:38:44;;;;;;;7.10;6.40;;;14.00;55.20;;;;;;5053950;28;20453;-58
2022/11/12 07:41:15;;;;;;;9.77;6.17;;;14.10;54.40;;;;;;5053676;28;20838;-57
2022/11/12 07:43:43;;;;;;;6.70;6.00;;;14.10;54.10;;;;;;5050541;28;20426;-58
2022/11/12 07:46:18;;;;;;;5.70;5.20;;;14.10;53.80;;;;;;5053865;28;20423;-57
2022/11/12 07:48:45;;;;;;;6.87;6.17;;;14.10;54.70;;;;;;5053328;28;20517;-57
2022/11/12 07:51:20;;;;;;;7.23;6.60;;;14.20;54.90;;;;;;5053622;28;20478;-57
2022/11/12 07:53:47;;;;;;;6.67;6.07;;;14.30;54.60;;;;;;5053162;28;20514;-57
2022/11/12 07:56:20;;;;;;;8.40;7.60;;;14.30;54.50;;;;;;5038381;28;20498;-58
2022/11/12 07:58:47;;;;;;;8.27;7.47;;;14.30;54.70;;;;;;5048243;28;20427;-57
2022/11/12 08:01:15;;;;;;;8.73;7.93;;;14.40;54.60;;;;;;5053630;28;20435;-59
2022/11/12 08:03:41;;;;;;;7.73;7.03;;;14.40;54.70;;;;;;5052902;28;20423;-57
2022/11/12 08:06:06;;;;;;;7.37;6.67;;;14.30;55.60;;;;;;5064809;28;20441;-57
2022/11/12 08:08:32;;;;;;;7.20;6.50;;;14.10;56.60;;;;;;5053230;28;20200;-57
2022/11/12 08:10:58;;;;;;;7.70;6.90;;;13.80;56.50;;;;;;5053445;28;20224;-58
2022/11/12 08:13:24;;;;;;;8.30;6.30;;;13.20;58.20;;;;;;5053133;28;20184;-57
2022/11/12 08:15:50;;;;;;;7.43;6.63;;;13.10;59.30;;;;;;5046347;28;20479;-56
2022/11/12 08:18:16;;;;;;;7.10;6.50;;;13.10;59.70;;;;;;5040368;28;20428;-58
2022/11/12 08:20:41;;;;;;;8.80;6.90;;;12.90;61.20;;;;;;5033009;28;20680;-58
2022/11/12 08:23:08;;;;;;;7.63;6.83;;;13.10;61.40;;;;;;5033057;28;20189;-57
2022/11/12 08:25:34;;;;;;;7.40;6.60;;;13.00;61.70;;;;;;5031370;28;20255;-57
2022/11/12 08:28:00;;;;;;;8.40;6.50;;;13.10;61.60;;;;;;5035875;28;20443;-58
2022/11/12 08:30:26;;;;;;;9.30;6.60;;;13.20;61.90;;;;;;5052394;28;20292;-58
2022/11/12 08:33:03;;;;;;;9.00;6.90;;;13.20;62.00;;;;;;5053301;28;20193;-55
2022/11/12 08:35:29;;;;;;;6.57;5.97;;;13.30;61.50;;;;;;5043961;28;20445;-58
2022/11/12 08:38:03;;;;;;;10.50;6.67;;;13.40;60.60;;;;;;5053209;28;20761;-57
2022/11/12 08:40:31;;;;;;;6.30;5.70;;;13.20;61.50;;;;;;5052465;28;20443;-56
2022/11/12 08:43:05;;;;;;;6.97;6.23;;;13.20;62.40;;;;;;5053268;28;21075;-57
2022/11/12 08:45:32;;;;;;;6.63;5.73;;;13.60;61.70;;;;;;5046903;28;20453;-57
2022/11/12 08:47:59;;;;;;;7.63;6.03;;;13.90;60.60;;;;;;5053131;28;20910;-57
2022/11/12 08:50:25;;;;;;;6.03;5.53;;;13.80;59.50;;;;;;5051979;28;20997;-56
2022/11/12 08:52:51;;;;;;;8.57;5.63;;;13.50;60.00;;;;;;5051378;28;20521;-58
2022/11/12 08:55:17;;;;;;;6.30;5.73;;;13.40;61.40;;;;;;5029320;28;20820;-57
2022/11/12 08:57:43;;;;;;;6.43;5.90;;;13.70;60.70;;;;;;5027481;28;20197;-57
2022/11/12 09:00:11;;;;;;;7.20;6.20;;;14.00;60.00;;;;;;5030584;28;20201;-57
2022/11/12 09:02:37;;;;;;;8.67;6.13;;;14.20;59.60;;;;;;5028813;28;20456;-57
2022/11/12 09:05:03;;;;;;;10.83;6.40;;;14.40;59.20;;;;;;5029883;28;20802;-57
2022/11/12 09:07:29;;;;;;;7.33;6.63;;;14.60;58.70;;;;;;5031019;28;20440;-56
2022/11/12 09:09:55;;;;;;;6.33;5.83;;;14.50;57.30;;;;;;5029803;28;20444;-57
2022/11/12 09:12:20;;;;;;;6.53;5.93;;;14.40;58.40;;;;;;5028378;28;20593;-58
2022/11/12 09:14:46;;;;;;;6.87;6.07;;;14.60;58.50;;;;;;5026183;28;20197;-57
2022/11/12 09:17:12;;;;;;;6.57;5.93;;;14.60;57.20;;;;;;5040777;28;20231;-58
2022/11/12 09:19:38;;;;;;;6.00;5.50;;;14.80;57.40;;;;;;5026627;28;20204;-58
2022/11/12 09:22:04;;;;;;;6.70;6.10;;;14.90;56.80;;;;;;5028933;28;20467;-57
2022/11/12 09:24:29;;;;;;;6.10;5.50;;;14.80;56.50;;;;;;5027693;28;20781;-57
2022/11/12 09:26:55;;;;;;;5.87;5.33;;;14.60;56.60;;;;;;5028579;28;20448;-58
2022/11/12 09:29:21;;;;;;;7.30;6.30;;;14.50;57.00;;;;;;5028319;28;20233;-58
2022/11/12 09:31:46;;;;;;;5.93;5.13;;;14.60;57.40;;;;;;5028583;28;20234;-58
2022/11/12 09:34:12;;;;;;;7.50;5.27;;;14.70;57.40;;;;;;5030966;28;20395;-58
2022/11/12 09:36:38;;;;;;;6.40;5.40;;;14.80;57.20;;;;;;5027746;28;20247;-58
2022/11/12 09:39:04;;;;;;;5.60;5.10;;;14.40;58.10;;;;;;5032017;28;21504;-58
2022/11/12 09:41:38;;;;;;;5.80;5.30;;;14.20;58.60;;;;;;5014641;28;20712;-58
2022/11/12 09:44:08;;;;;;;6.63;5.93;;;14.30;58.80;;;;;;5024537;28;20193;-58
2022/11/12 09:46:51;;;;;;;7.33;6.50;;;14.30;58.30;;;;;;5018953;28;21278;-58
2022/11/12 09:49:35;;;;;;;6.07;5.57;;;14.30;58.00;;;;;;5022778;28;20443;-58
2022/11/12 09:52:26;;;;;;;6.60;5.90;;;14.30;58.20;;;;;;5028741;28;20537;-59
2022/11/12 09:55:13;;;;;;;7.40;5.50;;;14.20;58.80;;;;;;5029504;28;20853;-58
2022/11/12 09:57:39;;;;;;;7.37;6.53;;;14.20;58.50;;;;;;5025215;28;20448;-58
2022/11/12 10:00:17;;;;;;;8.27;5.70;;;14.50;57.80;;;;;;5029476;28;20451;-59
2022/11/12 10:03:04;;;;;;;5.50;5.00;;;14.40;57.20;;;;;;5024240;28;20209;-60
2022/11/12 10:05:40;;;;;;;6.67;5.30;;;14.60;57.70;;;;;;5025076;28;20450;-60
2022/11/12 10:08:33;;;;;;;6.40;5.90;;;14.90;57.40;;;;;;5035612;28;20459;-60
2022/11/12 10:11:13;;;;;;;5.23;4.73;;;14.90;56.50;;;;;;5023385;28;20495;-59
2022/11/12 10:14:00;;;;;;;6.10;5.47;;;14.60;57.30;;;;;;5024011;28;21027;-59
2022/11/12 10:16:56;;;;;;;6.33;5.20;;;14.90;57.60;;;;;;5023327;28;20484;-60
2022/11/12 10:19:55;;;;;;;6.93;5.30;;;15.20;57.10;;;;;;5025815;28;20884;-59
2022/11/12 10:22:38;;;;;;;4.93;4.43;;;15.50;56.30;;;;;;5013266;28;20515;-59
2022/11/12 10:25:16;;;;;;;5.63;4.93;;;15.90;55.80;;;;;;5032747;28;20470;-60
2022/11/12 10:27:43;;;;;;;6.80;5.27;;;16.20;55.50;;;;;;5047150;28;20925;-60
2022/11/12 10:30:16;;;;;;;5.17;4.67;;;16.30;54.40;;;;;;5028988;28;20538;-59
2022/11/12 10:32:44;;;;;;;6.63;5.70;;;16.30;54.20;;;;;;5027342;28;20490;-59
2022/11/12 10:35:13;;;;;;;7.30;5.63;;;16.50;53.50;;;;;;5027723;28;20458;-59
2022/11/12 10:37:46;;;;;;;6.47;4.93;;;16.70;53.40;;;;;;5024873;28;21358;-59
2022/11/12 10:40:23;;;;;;;4.80;4.40;;;16.80;52.40;;;;;;5026554;28;20495;-59
2022/11/12 10:43:01;;;;;;;5.23;4.73;;;16.50;53.00;;;;;;5022520;28;20818;-59
2022/11/12 10:45:27;;;;;;;5.40;4.90;;;16.70;53.00;;;;;;5021605;28;20486;-59
2022/11/12 10:47:53;;;;;;;4.90;4.50;;;16.90;52.40;;;;;;5020819;28;20436;-58
2022/11/12 10:50:41;;;;;;;7.00;5.00;;;17.10;52.70;;;;;;5023974;28;20501;-58
2022/11/12 10:53:10;;;;;;;5.90;4.83;;;17.20;52.90;;;;;;5019877;28;20200;-59
2022/11/12 10:55:53;;;;;;;5.83;5.33;;;17.50;52.40;;;;;;5024015;28;20443;-59
2022/11/12 10:58:19;;;;;;;6.07;5.20;;;17.80;51.60;;;;;;5022657;28;20458;-59
2022/11/12 11:00:53;;;;;;;7.00;5.67;;;17.90;51.40;;;;;;5025568;28;20451;-58
2022/11/12 11:03:25;;;;;;;5.57;4.80;;;18.10;50.60;;;;;;5019770;28;20451;-58
2022/11/12 11:06:14;;;;;;;4.80;4.40;;;18.10;50.80;;;;;;5025291;28;20976;-58
2022/11/12 11:08:48;;;;;;;5.83;5.30;;;18.20;50.30;;;;;;5024964;28;21025;-58
2022/11/12 11:11:25;;;;;;;6.03;5.40;;;18.10;50.90;;;;;;5031368;28;20537;-58
2022/11/12 11:13:54;;;;;;;5.80;5.20;;;18.20;50.50;;;;;;5030333;28;20521;-58
2022/11/12 11:16:23;;;;;;;5.40;4.90;;;18.40;50.30;;;;;;5031381;28;20490;-58
2022/11/12 11:18:54;;;;;;;5.97;5.47;;;18.40;49.80;;;;;;5029811;28;20443;-58
2022/11/12 11:21:37;;;;;;;6.47;5.30;;;18.40;49.80;;;;;;5025109;28;20563;-59
2022/11/12 11:24:38;;;;;;;6.80;5.47;;;18.60;49.30;;;;;;5026152;28;20539;-59
2022/11/12 11:27:23;;;;;;;8.23;5.20;;;18.60;49.30;;;;;;5020294;28;20488;-59
2022/11/12 11:30:08;;;;;;;5.63;5.00;;;18.60;49.50;;;;;;5030873;28;20534;-60
2022/11/12 11:32:48;;;;;;;5.67;5.17;;;18.60;49.70;;;;;;5032513;28;21012;-59
2022/11/12 11:35:48;;;;;;;5.90;5.20;;;18.70;49.50;;;;;;5031262;28;20529;-59
2022/11/12 11:38:33;;;;;;;5.03;4.60;;;18.80;49.50;;;;;;5022192;28;20452;-59
2022/11/12 11:41:14;;;;;;;5.93;5.33;;;18.70;48.70;;;;;;5028180;28;20456;-59
2022/11/12 11:43:49;;;;;;;5.30;4.80;;;18.80;48.40;;;;;;5038951;28;20470;-59
2022/11/12 11:46:23;;;;;;;5.50;4.87;;;19.00;48.90;;;;;;5039522;28;20442;-59
2022/11/12 11:49:00;;;;;;;5.47;4.73;;;19.10;48.70;;;;;;5028925;28;20443;-59
2022/11/12 11:51:48;;;;;;;6.53;5.50;;;19.30;48.70;;;;;;5021204;28;20483;-59
2022/11/12 11:54:32;;;;;;;7.00;4.90;;;19.40;48.30;;;;;;5031391;28;20857;-59
2022/11/12 11:57:02;;;;;;;6.03;4.93;;;19.50;48.60;;;;;;5024408;28;20443;-59
2022/11/12 11:59:28;;;;;;;4.93;4.43;;;19.50;49.00;;;;;;5028244;28;20436;-59
2022/11/12 12:02:17;;;;;;;5.67;5.17;;;19.60;49.10;;;;;;5023277;28;20475;-59
2022/11/12 12:05:10;;;;;;;8.37;5.70;;;19.70;48.20;;;;;;5030271;28;20277;-59
2022/11/12 12:07:48;;;;;;;5.60;5.00;;;19.80;47.90;;;;;;5026457;28;20455;-59
2022/11/12 12:10:24;;;;;;;5.07;4.57;;;19.70;47.50;;;;;;5030704;28;20526;-59
2022/11/12 12:12:49;;;;;;;6.27;5.00;;;19.80;47.40;;;;;;5029397;28;20530;-59
2022/11/12 12:15:34;;;;;;;5.67;5.13;;;19.90;47.60;;;;;;5040348;28;20530;-59
2022/11/12 12:18:24;;;;;;;5.80;5.17;;;19.80;47.60;;;;;;5028873;28;20712;-59
2022/11/12 12:21:10;;;;;;;6.70;5.07;;;19.80;48.00;;;;;;5029885;28;20448;-59
2022/11/12 12:23:56;;;;;;;9.50;6.00;;;19.90;48.60;;;;;;5029221;28;20454;-59
2022/11/12 12:27:03;;;;;;;9.60;5.07;;;19.90;49.70;;;;;;5029326;28;20455;-59
2022/11/12 12:29:49;;;;;;;5.00;4.60;;;20.00;49.40;;;;;;4989733;28;21009;-59
2022/11/12 12:32:39;;;;;;;6.03;5.43;;;19.90;48.70;;;;;;5022661;28;20546;-59
2022/11/12 12:35:12;;;;;;;5.73;5.23;;;20.00;48.70;;;;;;5027779;28;21211;-59
2022/11/12 12:37:47;;;;;;;5.40;4.90;;;20.10;49.00;;;;;;5031178;28;20448;-59
2022/11/12 12:40:21;;;;;;;5.90;4.80;;;20.20;49.20;;;;;;5027382;28;20451;-59
2022/11/12 12:43:12;;;;;;;7.20;6.17;;;20.20;48.60;;;;;;5031401;28;20455;-59
2022/11/12 12:45:45;;;;;;;7.23;5.53;;;20.20;48.00;;;;;;5030251;28;20446;-58
2022/11/12 12:48:33;;;;;;;6.10;5.50;;;20.20;48.70;;;;;;5022192;28;20455;-59
2022/11/12 12:50:59;;;;;;;6.23;5.50;;;20.10;48.50;;;;;;5026641;28;20483;-59
2022/11/12 12:53:28;;;;;;;5.50;4.93;;;20.10;48.60;;;;;;5031149;28;20935;-59
2022/11/12 12:55:57;;;;;;;5.63;5.13;;;20.10;48.50;;;;;;5029788;28;20996;-59
2022/11/12 12:58:22;;;;;;;6.27;5.67;;;20.10;48.80;;;;;;5029508;28;20498;-59
2022/11/12 13:00:55;;;;;;;6.30;5.20;;;20.10;48.70;;;;;;5020566;28;20447;-58
2022/11/12 13:03:53;;;;;;;5.73;5.20;;;20.20;49.10;;;;;;5042229;28;20196;-58
2022/11/12 13:06:22;;;;;;;6.10;5.50;;;20.20;49.00;;;;;;5023707;28;20996;-58
2022/11/12 13:08:50;;;;;;;6.33;5.70;;;20.20;48.70;;;;;;5033946;28;20439;-58
2022/11/12 13:14:34;;;;;;;7.80;5.70;;;20.20;49.20;;;;;;5035695;28;20474;-59
2022/11/12 13:17:06;;;;;;;6.60;5.97;;;20.30;49.40;;;;;;5038145;28;20986;-58
2022/11/12 13:19:35;;;;;;;6.80;5.53;;;20.30;49.40;;;;;;5031334;28;20448;-59
2022/11/12 13:22:46;;;;;;;6.90;6.10;;;20.20;49.80;;;;;;5032908;28;20841;-59
2022/11/12 13:25:12;;;;;;;6.27;5.40;;;20.10;49.50;;;;;;5026189;28;20459;-59